createdAt,value
2018-04-06T00:00:49.706Z,1.97
2018-04-06T00:05:52.253Z,2.80
2018-04-06T00:10:54.847Z,2.77
2018-04-06T00:16:00.013Z,2.60
2018-04-06T00:21:02.561Z,2.63
2018-04-06T00:26:05.706Z,2.80
2018-04-06T00:31:08.298Z,2.50
2018-04-06T00:36:11.514Z,2.93
2018-04-06T00:41:14.442Z,2.50
2018-04-06T00:46:18.002Z,2.57
2018-04-06T00:51:20.570Z,3.20
2018-04-06T00:56:23.806Z,2.90
2018-04-06T01:01:26.502Z,2.57
2018-04-06T01:06:29.058Z,3.13
2018-04-06T01:11:32.227Z,3.00
2018-04-06T01:16:35.442Z,2.40
2018-04-06T01:21:38.027Z,2.80
2018-04-06T01:26:40.589Z,2.67
2018-04-06T01:31:43.778Z,2.50
2018-04-06T01:36:46.648Z,2.73
2018-04-06T01:41:49.685Z,2.80
2018-04-06T01:46:52.538Z,3.47
2018-04-06T01:51:55.120Z,3.57
2018-04-06T01:56:59.306Z,3.00
2018-04-06T02:02:01.863Z,3.13
2018-04-06T02:07:04.431Z,2.73
2018-04-06T02:12:07.582Z,2.60
2018-04-06T02:17:10.403Z,3.27
2018-04-06T02:22:13.138Z,2.70
2018-04-06T02:27:15.707Z,2.83
2018-04-06T02:32:18.742Z,3.00
2018-04-06T02:37:21.326Z,3.30
2018-04-06T02:42:25.308Z,2.73
2018-04-06T02:47:28.579Z,3.50
2018-04-06T02:52:33.644Z,3.03
2018-04-06T02:57:36.345Z,2.70
2018-04-06T03:02:38.930Z,2.77
2018-04-06T03:07:41.803Z,3.53
2018-04-06T03:12:44.914Z,3.57
2018-04-06T03:17:47.479Z,3.40
2018-04-06T03:22:50.772Z,2.73
2018-04-06T03:27:53.334Z,3.00
2018-04-06T03:32:58.625Z,2.43
2018-04-06T03:38:01.194Z,2.80
2018-04-06T03:43:03.780Z,2.80
2018-04-06T03:48:06.804Z,2.80
2018-04-06T03:53:09.390Z,3.20
2018-04-06T03:58:11.957Z,3.13
2018-04-06T04:03:14.533Z,3.30
2018-04-06T04:08:17.097Z,3.40
2018-04-06T04:13:19.689Z,3.10
2018-04-06T04:18:22.245Z,3.27
2018-04-06T04:23:24.816Z,3.37
2018-04-06T04:28:27.943Z,3.27
2018-04-06T04:33:30.503Z,2.80
2018-04-06T04:38:33.073Z,3.23
2018-04-06T04:43:36.869Z,3.20
2018-04-06T04:48:39.438Z,3.20
2018-04-06T04:53:42.678Z,3.70
2018-04-06T04:58:48.480Z,3.50
2018-04-06T05:03:51.700Z,3.17
2018-04-06T05:08:54.280Z,4.73
2018-04-06T05:13:59.430Z,5.60
2018-04-06T05:19:02.009Z,5.47
2018-04-06T05:24:05.251Z,5.53
2018-04-06T05:29:08.082Z,5.10
2018-04-06T05:34:10.622Z,4.60
2018-04-06T05:39:13.191Z,4.50
2018-04-06T05:44:16.241Z,4.23
2018-04-06T05:49:18.798Z,4.90
2018-04-06T05:54:22.166Z,5.67
2018-04-06T05:59:27.421Z,6.60
2018-04-06T06:04:29.970Z,6.53
2018-04-06T06:09:32.540Z,6.23
2018-04-06T06:14:35.598Z,7.30
2018-04-06T06:19:38.191Z,7.43
2018-04-06T06:24:41.315Z,7.37
2018-04-06T06:29:44.013Z,7.47
2018-04-06T06:34:46.603Z,6.67
2018-04-06T06:39:49.746Z,6.50
2018-04-06T06:44:52.324Z,6.50
2018-04-06T06:49:55.276Z,6.60
2018-04-06T06:54:57.862Z,6.80
2018-04-06T07:00:00.420Z,6.30
2018-04-06T07:05:05.430Z,6.30
2018-04-06T07:10:09.268Z,7.37
2018-04-06T07:15:12.380Z,6.90
2018-04-06T07:20:15.586Z,6.90
2018-04-06T07:25:18.404Z,6.20
2018-04-06T07:30:20.958Z,6.37
2018-04-06T07:35:24.367Z,6.10
2018-04-06T07:40:26.990Z,6.13
2018-04-06T07:45:29.726Z,6.00
2018-04-06T07:50:32.305Z,6.27
2018-04-06T07:55:35.030Z,6.27
2018-04-06T08:00:37.813Z,5.03
2018-04-06T08:05:41.030Z,4.93
2018-04-06T08:10:45.090Z,4.33
2018-04-06T08:15:47.658Z,4.40
2018-04-06T08:20:50.246Z,4.20
2018-04-06T08:25:52.813Z,4.23
2018-04-06T08:30:57.097Z,4.27
2018-04-06T08:35:59.671Z,4.07
2018-04-06T08:41:02.291Z,4.50
2018-04-06T08:46:04.822Z,4.23
2018-04-06T08:51:07.410Z,3.93
2018-04-06T08:56:09.994Z,4.33
2018-04-06T09:01:12.634Z,4.87
2018-04-06T09:06:15.218Z,5.07
2018-04-06T09:11:17.824Z,5.67
2018-04-06T09:16:20.414Z,4.73
2018-04-06T09:21:23.011Z,4.10
2018-04-06T09:26:25.588Z,5.77
2018-04-06T09:31:28.167Z,5.30
2018-04-06T09:36:31.338Z,4.87
2018-04-06T09:41:33.962Z,4.90
2018-04-06T09:46:36.496Z,3.97
2018-04-06T09:51:39.076Z,4.57
2018-04-06T09:56:41.654Z,4.07
2018-04-06T10:01:44.233Z,4.07
2018-04-06T10:06:46.802Z,4.03
2018-04-06T10:11:49.368Z,4.37
2018-04-06T10:16:51.937Z,3.83
2018-04-06T10:21:54.514Z,4.50
2018-04-06T10:26:57.098Z,4.13
2018-04-06T10:31:59.686Z,4.20
2018-04-06T10:37:04.827Z,4.50
2018-04-06T10:42:07.399Z,4.40
2018-04-06T10:47:10.256Z,4.47
2018-04-06T10:52:13.464Z,4.67
2018-04-06T10:57:16.167Z,4.00
2018-04-06T11:02:19.506Z,4.10
2018-04-06T11:07:22.082Z,4.67
2018-04-06T11:12:25.124Z,4.50
2018-04-06T11:17:28.329Z,4.83
2018-04-06T11:22:31.542Z,3.87
2018-04-06T11:27:34.127Z,4.00
2018-04-06T11:32:36.713Z,4.50
2018-04-06T11:37:40.054Z,4.07
2018-04-06T11:42:43.213Z,4.00
2018-04-06T11:47:46.521Z,3.90
2018-04-06T11:52:49.097Z,3.60
2018-04-06T11:57:51.680Z,4.27
2018-04-06T12:02:54.247Z,3.97
2018-04-06T12:07:57.078Z,4.93
2018-04-06T12:12:59.639Z,3.87
2018-04-06T12:18:02.212Z,3.70
2018-04-06T12:23:04.765Z,4.00
2018-04-06T12:28:09.317Z,4.03
2018-04-06T12:33:11.895Z,3.90
2018-04-06T12:38:15.027Z,4.83
2018-04-06T12:43:17.581Z,3.60
2018-04-06T12:48:23.210Z,4.40
2018-04-06T12:53:25.786Z,4.07
2018-04-06T12:58:28.344Z,4.23
2018-04-06T13:03:31.262Z,4.03
2018-04-06T13:08:33.839Z,4.50
2018-04-06T13:13:36.635Z,5.33
2018-04-06T13:18:39.210Z,3.90
2018-04-06T13:23:44.351Z,4.43
2018-04-06T13:28:46.930Z,3.90
2018-04-06T13:33:49.494Z,3.90
2018-04-06T13:38:52.638Z,3.63
2018-04-06T13:43:55.517Z,3.90
2018-04-06T13:48:59.114Z,4.20
2018-04-06T13:54:01.686Z,4.30
2018-04-06T13:59:04.257Z,4.53
2018-04-06T14:04:06.824Z,3.70
2018-04-06T14:09:09.397Z,3.87
2018-04-06T14:14:11.972Z,4.20
2018-04-06T14:19:14.542Z,3.47
2018-04-06T14:24:17.142Z,3.53
2018-04-06T14:29:19.743Z,4.43
2018-04-06T14:34:24.878Z,3.73
2018-04-06T14:39:27.706Z,3.37
2018-04-06T14:44:30.489Z,4.13
2018-04-06T14:49:33.067Z,3.40
2018-04-06T14:54:35.655Z,5.10
2018-04-06T14:59:38.235Z,4.43
2018-04-06T15:04:41.274Z,4.07
2018-04-06T15:09:43.835Z,4.13
2018-04-06T15:14:47.065Z,4.00
2018-04-06T15:19:50.430Z,4.17
2018-04-06T15:24:53.070Z,4.33
2018-04-06T15:29:55.874Z,3.73
2018-04-06T15:34:58.441Z,4.20
2018-04-06T15:40:01.278Z,4.97
2018-04-06T15:45:03.848Z,4.00
2018-04-06T15:50:06.419Z,4.40
2018-04-06T15:55:08.985Z,4.57
2018-04-06T16:00:11.554Z,4.60
2018-04-06T16:05:14.833Z,4.00
2018-04-06T16:10:18.039Z,4.50
2018-04-06T16:15:20.615Z,3.97
2018-04-06T16:20:23.233Z,4.03
2018-04-06T16:25:25.966Z,4.20
2018-04-06T16:30:28.977Z,5.03
2018-04-06T16:35:32.009Z,4.07
2018-04-06T16:40:34.573Z,4.77
2018-04-06T16:45:37.737Z,4.40
2018-04-06T16:50:40.346Z,4.20
2018-04-06T16:55:42.928Z,4.23
2018-04-06T17:00:45.759Z,5.07
2018-04-06T17:05:49.678Z,5.73
2018-04-06T17:10:52.265Z,5.30
2018-04-06T17:15:55.478Z,4.50
2018-04-06T17:20:58.066Z,4.80
2018-04-06T17:26:00.894Z,5.10
2018-04-06T17:31:03.463Z,5.10
2018-04-06T17:36:06.030Z,5.27
2018-04-06T17:41:08.589Z,5.63
2018-04-06T17:46:11.614Z,4.90
2018-04-06T17:51:14.196Z,5.10
2018-04-06T17:56:16.765Z,4.47
2018-04-06T18:01:19.346Z,4.67
2018-04-06T18:06:21.903Z,4.83
2018-04-06T18:11:24.474Z,4.40
2018-04-06T18:16:27.635Z,4.80
2018-04-06T18:21:30.204Z,4.87
2018-04-06T18:26:32.770Z,4.87
2018-04-06T18:31:35.342Z,5.07
2018-04-06T18:36:38.474Z,4.90
2018-04-06T18:41:41.036Z,4.57
2018-04-06T18:46:45.550Z,5.10
2018-04-06T18:51:48.854Z,5.03
2018-04-06T18:56:51.418Z,5.00
2018-04-06T19:01:53.986Z,5.63
2018-04-06T19:06:56.606Z,5.50
2018-04-06T19:11:59.158Z,5.00
2018-04-06T19:17:02.155Z,5.20
2018-04-06T19:22:04.734Z,5.73
2018-04-06T19:27:08.086Z,5.60
2018-04-06T19:32:10.677Z,5.83
2018-04-06T19:37:13.264Z,6.50
2018-04-06T19:42:15.868Z,14.13
2018-04-06T19:47:18.429Z,7.10
2018-04-06T19:52:21.033Z,6.53
2018-04-06T19:57:23.616Z,9.00
2018-04-06T20:02:26.180Z,8.27
2018-04-06T20:07:28.813Z,7.53
2018-04-06T20:12:32.131Z,7.80
2018-04-06T20:17:34.734Z,7.10
2018-04-06T20:22:37.297Z,18.17
2018-04-06T20:27:39.876Z,12.17
2018-04-06T20:32:42.463Z,7.20
2018-04-06T20:37:45.514Z,7.40
2018-04-06T20:42:48.106Z,7.57
2018-04-06T20:47:50.675Z,10.03
2018-04-06T20:52:53.970Z,12.97
2018-04-06T20:57:56.589Z,8.57
2018-04-06T21:02:59.185Z,8.83
2018-04-06T21:08:01.746Z,8.10
2018-04-06T21:13:04.309Z,6.80
2018-04-06T21:18:07.450Z,6.53
2018-04-06T21:23:10.481Z,6.30
2018-04-06T21:28:13.430Z,7.63
2018-04-06T21:33:16.850Z,7.80
2018-04-06T21:38:19.538Z,6.33
2018-04-06T21:43:22.199Z,6.93
2018-04-06T21:48:24.733Z,8.00
2018-04-06T21:53:27.638Z,12.93
2018-04-06T21:58:30.214Z,11.27
2018-04-06T22:03:32.988Z,11.30
2018-04-06T22:08:36.142Z,11.53
2018-04-06T22:13:39.694Z,9.90
2018-04-06T22:18:42.265Z,8.20
2018-04-06T22:23:44.842Z,9.70
2018-04-06T22:28:47.417Z,12.80
2018-04-06T22:33:49.997Z,13.30
2018-04-06T22:38:52.599Z,12.17
2018-04-06T22:43:55.815Z,13.57
2018-04-06T22:48:59.159Z,10.47
2018-04-06T22:54:01.756Z,8.70
2018-04-06T22:59:04.319Z,8.73
2018-04-06T23:04:06.895Z,11.03
2018-04-06T23:09:09.468Z,9.03
2018-04-06T23:14:12.053Z,9.57
2018-04-06T23:19:14.634Z,14.03
2018-04-06T23:24:17.698Z,12.30
2018-04-06T23:29:22.906Z,12.47
2018-04-06T23:34:25.515Z,10.47
2018-04-06T23:39:28.086Z,9.00
2018-04-06T23:44:30.650Z,9.90
2018-04-06T23:49:33.213Z,9.03
2018-04-06T23:54:35.794Z,9.07
2018-04-06T23:59:38.381Z,9.03
